Rio Grande, Argentina
Current Conditions -  °F | °C
As of 12:00 AM on Saturday 25 Oct 2014 (Local Time) from SAWH Reporting Station
Rain Showers Rain Showers  
Wind Chill: 33°   Ceiling: 2500
Heat Index: 45°   Visibility: 6mi
Dew Point: 36°   Wind: 46mph
Humidity: 71%   Direction: 230°SW
Pressure: NA   Gusts: NA
Location:  53.78°S, 67.75°W
Report Text: SAWH 250300Z 23040KT 9999 VCSH BKN025 BKN040 07/02 Q0996〓
Loading
Personal Weather Stations






























Interactive Weather Map
Tropical Storm Tracking
New forecast layout! Learn more

10-Day Weather Forecast

Advertisements
Track Severe Weather on mobile